Airfield :
LOGIN :

Register | Disclaimer

   EN    FR    IT 

 










Legend :    VFR   Marginal VFR   IFR   Intensive IFR   Very Intensive IFR
Visi :
Ceiling :
>= 8 km
>= 3000ft
5 to 8 km
1000 to 3000 ft
1500m to 5 km
500 to 1000 ft
800 to 1500m
200 to 500 ft
< 800m
< 200 ft
Symbols :   Thunderstorms  Fog  Heavy snow  Heavy precipitations  Wind > 20 kt
SIGMETs :     Misc.  Thunderstorms  Icing  Turbulence  Mountain Waves  Volcanic Ashes







- Airport Elevation : 276 ft


LYVR - Vršac International

CURRENT METAR :
  • 241300Z 08001KT CAVOK 20/M04 Q1021 NOSIG

EXPIRED METARs :
  • 241230Z VRB04KT CAVOK 19/M04 Q1021 NOSIG
  • 241200Z VRB03KT CAVOK 19/M04 Q1022 NOSIG
  • 241130Z VRB01KT CAVOK 18/M03 Q1022 NOSIG
  • 241100Z VRB02KT CAVOK 18/M03 Q1023 NOSIG
  • 241030Z 05002KT CAVOK 17/M02 Q1023 NOSIG
  • 241000Z VRB03KT CAVOK 17/M01 Q1023 NOSIG

TAF TAF LYVR
Valid from the 24 at 12:00 until the 25 at 12:00 UTC


241100Z 2412/2512 22005KT CAVOK TX20/2413Z TNM00/2505Z
No reported NOTAMs for that airfield.



MET'MAP, your aeronautical weather chart ! - Copyright ORBIFLY December 2007 - Disclaimer

ORBIFLY MET'MAP TEAM :

Programming & Development : Alexandra Zaïnal
Concept & Development : Baudouin d'Aumeries
Co-Development & Prog : Marc-Olivier Méhu
Technical & hardware support : Manuel Goepfert

Contact : metmap@orbifly.com




SOURCES & CREDITS :

   NOAA